Time;durP1;ratioP1;P1;durP2;ratioP2;P2;SDS_P1;SDS_P2;PMS_P1;PMS_P2;Temp;Humidity;BMP_temperature;BMP_pressure;BME280_temperature;BME280_humidity;BME280_pressure;Samples;Min_cycle;Max_cycle;Signal;HPM_P1;HPM_P2
2022/12/30 00:01:00;;;;;;;7.72;1.27;;;8.90;78.70;;;;;;5048047;28;20067;-58
2022/12/30 00:03:25;;;;;;;3.78;1.05;;;8.90;78.70;;;;;;5038489;28;20029;-57
2022/12/30 00:05:51;;;;;;;5.03;1.10;;;8.90;78.80;;;;;;5046430;28;20041;-58
2022/12/30 00:11:02;;;;;;;5.53;1.98;;;8.80;78.80;;;;;;5048208;28;20071;-58
2022/12/30 00:33:06;;;;;;;1.85;1.33;;;8.60;79.20;;;;;;5043815;28;20044;-66
2022/12/30 00:35:32;;;;;;;2.38;0.98;;;8.60;79.30;;;;;;5039366;28;20492;-67
2022/12/30 00:37:58;;;;;;;1.20;0.88;;;8.60;79.30;;;;;;5042240;28;20075;-67
2022/12/30 00:40:24;;;;;;;1.02;0.85;;;8.50;79.30;;;;;;5043653;28;20413;-66
2022/12/30 00:43:08;;;;;;;5.03;1.45;;;8.50;79.40;;;;;;5049170;28;20025;-66
2022/12/30 00:45:38;;;;;;;8.63;1.33;;;8.50;79.50;;;;;;5047994;28;20373;-66
2022/12/30 00:56:17;;;;;;;2.85;1.10;;;8.40;79.80;;;;;;5052381;28;20094;-58
2022/12/30 00:58:43;;;;;;;1.48;1.00;;;8.40;79.90;;;;;;5052653;28;20107;-59
2022/12/30 01:01:09;;;;;;;2.92;1.25;;;8.40;79.90;;;;;;5056946;28;20064;-58
2022/12/30 01:03:34;;;;;;;4.20;1.60;;;8.40;80.00;;;;;;5050943;28;20029;-58
2022/12/30 01:06:08;;;;;;;3.88;1.73;;;8.30;80.00;;;;;;5055317;28;20381;-58
2022/12/30 01:08:34;;;;;;;2.20;0.85;;;8.30;80.00;;;;;;5047241;28;20373;-58
2022/12/30 01:11:04;;;;;;;5.05;1.23;;;8.30;80.10;;;;;;5049258;28;20029;-66
2022/12/30 01:13:29;;;;;;;5.30;1.30;;;8.30;80.10;;;;;;5062623;28;20033;-65
2022/12/30 01:15:55;;;;;;;1.88;1.27;;;8.30;80.10;;;;;;5044436;28;20036;-57
2022/12/30 01:18:20;;;;;;;5.40;1.05;;;8.30;80.10;;;;;;5052219;28;20372;-58
2022/12/30 01:20:46;;;;;;;5.43;1.45;;;8.20;80.20;;;;;;5054089;28;20446;-66
2022/12/30 01:23:12;;;;;;;7.55;1.65;;;8.20;80.30;;;;;;5048733;28;20402;-57
2022/12/30 01:25:40;;;;;;;1.10;0.98;;;8.20;80.30;;;;;;5055965;28;20039;-66
2022/12/30 01:28:06;;;;;;;5.93;1.33;;;8.20;80.30;;;;;;5044952;28;20021;-65
2022/12/30 01:30:32;;;;;;;3.05;0.60;;;8.20;80.40;;;;;;5049513;28;20501;-66
2022/12/30 01:32:57;;;;;;;3.53;1.83;;;8.20;80.40;;;;;;5050441;28;20102;-58
2022/12/30 01:35:23;;;;;;;3.05;0.80;;;8.20;80.40;;;;;;5052236;28;20488;-66
2022/12/30 01:37:48;;;;;;;4.53;0.80;;;8.20;80.40;;;;;;5050323;28;20090;-57
2022/12/30 01:40:14;;;;;;;2.63;1.27;;;8.20;80.40;;;;;;5037877;28;20091;-67
2022/12/30 01:42:41;;;;;;;2.60;0.90;;;8.20;80.50;;;;;;5056499;28;20035;-58
2022/12/30 01:45:27;;;;;;;4.57;1.50;;;8.20;80.50;;;;;;5051960;28;20032;-58
2022/12/30 01:48:20;;;;;;;10.52;0.98;;;8.20;80.30;;;;;;5061624;28;20020;-58
2022/12/30 01:50:46;;;;;;;5.32;1.67;;;8.20;81.00;;;;;;5039724;28;20484;-66
2022/12/30 01:53:42;;;;;;;1.65;0.90;;;8.20;80.50;;;;;;5046157;28;20037;-58
2022/12/30 01:56:40;;;;;;;0.80;0.80;;;8.20;80.20;;;;;;5049409;28;20041;-59
2022/12/30 01:59:09;;;;;;;1.38;1.02;;;8.20;80.70;;;;;;5046844;28;20133;-66
2022/12/30 02:01:36;;;;;;;1.38;0.70;;;8.20;80.50;;;;;;5051895;28;20047;-59
2022/12/30 02:04:07;;;;;;;2.70;1.45;;;8.10;80.40;;;;;;5051777;28;20111;-58
2022/12/30 02:06:51;;;;;;;1.75;1.05;;;8.10;80.50;;;;;;5050417;28;20049;-59
2022/12/30 02:09:17;;;;;;;0.68;0.60;;;8.10;80.50;;;;;;5043460;28;20150;-58
2022/12/30 02:11:43;;;;;;;7.32;1.70;;;8.10;80.50;;;;;;5049232;28;20036;-67
2022/12/30 02:14:09;;;;;;;1.75;0.57;;;8.10;80.40;;;;;;5045070;28;20492;-59
2022/12/30 02:16:48;;;;;;;1.90;0.93;;;8.10;80.40;;;;;;5054347;28;20082;-58
2022/12/30 02:20:08;;;;;;;1.27;0.70;;;8.10;80.40;;;;;;5053264;28;20036;-58
2022/12/30 02:23:01;;;;;;;2.25;1.00;;;8.10;80.30;;;;;;5027410;28;20160;-66
2022/12/30 02:25:29;;;;;;;;;;;8.10;80.50;;;;;;5043292;28;20045;-63
2022/12/30 02:28:05;;;;;;;2.80;1.17;;;8.00;80.70;;;;;;5047462;28;20243;-57
2022/12/30 02:31:11;;;;;;;1.30;1.00;;;8.00;80.80;;;;;;5056739;28;20054;-58
2022/12/30 02:33:57;;;;;;;6.30;1.63;;;8.00;80.80;;;;;;5053981;28;20033;-57
2022/12/30 02:36:37;;;;;;;3.08;1.40;;;7.90;80.90;;;;;;5048527;28;20021;-58
2022/12/30 02:39:19;;;;;;;1.40;1.00;;;7.90;81.00;;;;;;5049297;28;20029;-57
2022/12/30 02:44:52;;;;;;;5.28;1.15;;;7.80;81.00;;;;;;5057663;28;20089;-57
2022/12/30 02:47:39;;;;;;;6.30;1.23;;;7.80;81.00;;;;;;5044370;28;20415;-65
2022/12/30 02:53:06;;;;;;;2.00;1.38;;;7.90;81.10;;;;;;5052192;28;20067;-57
2022/12/30 02:55:32;;;;;;;4.45;0.90;;;7.80;81.00;;;;;;5049989;28;20029;-67
2022/12/30 02:57:57;;;;;;;9.73;1.35;;;7.80;81.00;;;;;;5050795;28;20036;-65
2022/12/30 03:06:05;;;;;;;6.93;1.33;;;7.90;81.00;;;;;;5050280;28;20127;-66
2022/12/30 03:08:42;;;;;;;4.05;1.23;;;7.90;80.90;;;;;;5054420;28;20091;-66
2022/12/30 03:11:16;;;;;;;3.80;1.30;;;7.90;81.00;;;;;;5060787;28;20032;-66
2022/12/30 03:13:53;;;;;;;2.88;0.93;;;7.90;81.00;;;;;;5049536;28;20467;-66
2022/12/30 03:16:35;;;;;;;6.28;1.52;;;7.80;81.00;;;;;;5059810;28;20395;-66
2022/12/30 03:19:05;;;;;;;2.37;1.23;;;7.80;81.10;;;;;;5050681;28;20037;-66
2022/12/30 03:21:34;;;;;;;4.18;1.17;;;7.80;81.10;;;;;;5055278;28;20387;-66
2022/12/30 03:27:05;;;;;;;1.50;0.65;;;7.80;80.90;;;;;;5046458;28;20462;-67
2022/12/30 03:29:54;;;;;;;2.08;1.02;;;7.80;81.00;;;;;;5048387;28;20017;-58
2022/12/30 03:32:22;;;;;;;4.57;1.33;;;7.80;80.90;;;;;;5043924;28;20032;-58
2022/12/30 03:34:48;;;;;;;1.90;1.02;;;7.80;81.10;;;;;;5044621;28;20029;-58
2022/12/30 03:37:27;;;;;;;2.45;1.10;;;7.80;81.20;;;;;;5052594;28;20072;-57
2022/12/30 03:40:17;;;;;;;1.10;0.82;;;7.80;81.60;;;;;;5044943;28;20029;-65
2022/12/30 03:42:46;;;;;;;4.82;1.13;;;7.80;80.90;;;;;;5060225;28;20036;-58
2022/12/30 03:45:13;;;;;;;5.03;1.08;;;7.80;81.00;;;;;;5047257;28;20034;-65
2022/12/30 03:47:39;;;;;;;1.30;0.80;;;7.70;81.00;;;;;;5061281;28;20044;-66
2022/12/30 03:50:08;;;;;;;3.10;1.25;;;7.80;81.10;;;;;;5040057;28;20025;-65
2022/12/30 03:52:33;;;;;;;5.65;1.20;;;7.80;81.00;;;;;;5067935;28;20032;-66
2022/12/30 03:54:59;;;;;;;4.25;1.52;;;7.80;81.10;;;;;;5054001;28;20040;-59
2022/12/30 03:57:25;;;;;;;2.55;0.75;;;7.80;81.00;;;;;;5056860;28;20082;-66
2022/12/30 03:59:50;;;;;;;2.80;1.10;;;7.70;81.00;;;;;;5050222;28;20568;-65
2022/12/30 04:02:16;;;;;;;4.07;1.13;;;7.70;81.00;;;;;;5052304;28;20036;-66
2022/12/30 04:04:42;;;;;;;3.05;0.90;;;7.70;80.90;;;;;;5051433;28;20575;-66
2022/12/30 04:07:07;;;;;;;3.55;1.10;;;7.70;80.90;;;;;;5044949;28;20068;-66
2022/12/30 04:09:33;;;;;;;1.65;1.20;;;7.60;81.00;;;;;;5042894;28;20022;-66
2022/12/30 04:11:58;;;;;;;4.20;1.10;;;7.60;81.00;;;;;;5052496;28;20041;-66
2022/12/30 04:14:24;;;;;;;2.45;0.98;;;7.60;81.00;;;;;;5049754;28;20044;-66
2022/12/30 04:16:50;;;;;;;3.63;1.13;;;7.50;80.90;;;;;;5047748;28;20040;-66
2022/12/30 04:19:15;;;;;;;0.82;0.75;;;7.50;81.10;;;;;;5061548;28;20088;-66
2022/12/30 04:21:41;;;;;;;0.93;0.55;;;7.50;81.10;;;;;;5044412;28;20036;-58
2022/12/30 04:24:07;;;;;;;3.20;1.20;;;7.50;81.10;;;;;;5050307;28;20033;-57
2022/12/30 04:26:33;;;;;;;3.20;1.20;;;7.50;81.10;;;;;;5049219;28;20035;-59
2022/12/30 04:28:59;;;;;;;5.72;1.27;;;7.60;81.20;;;;;;5039722;28;20079;-67
2022/12/30 04:31:25;;;;;;;3.28;0.93;;;7.60;81.20;;;;;;5051168;28;20078;-58
2022/12/30 04:33:52;;;;;;;3.22;1.13;;;7.50;81.20;;;;;;5052863;28;20033;-59
2022/12/30 04:36:19;;;;;;;2.13;1.48;;;7.50;81.20;;;;;;5041374;28;20035;-66
2022/12/30 04:38:44;;;;;;;1.95;1.25;;;7.50;81.20;;;;;;5049164;28;20033;-58
2022/12/30 04:41:11;;;;;;;3.53;1.15;;;7.50;81.30;;;;;;5048306;28;20551;-59
2022/12/30 04:43:37;;;;;;;9.63;1.73;;;7.40;81.40;;;;;;5046690;28;20404;-67
2022/12/30 04:46:02;;;;;;;5.40;1.40;;;7.40;81.50;;;;;;5048064;28;20025;-67
2022/12/30 04:48:28;;;;;;;3.60;1.15;;;7.40;81.40;;;;;;5051385;28;20070;-67
2022/12/30 04:50:54;;;;;;;4.20;1.27;;;7.40;81.50;;;;;;5048666;28;20025;-59
2022/12/30 04:53:20;;;;;;;6.13;1.65;;;7.40;81.50;;;;;;5049625;28;20094;-60
2022/12/30 04:55:45;;;;;;;3.50;1.40;;;7.30;81.60;;;;;;5047925;28;20044;-66
2022/12/30 04:58:11;;;;;;;8.98;1.50;;;7.40;81.60;;;;;;5041063;28;20029;-58
2022/12/30 05:00:37;;;;;;;3.58;1.67;;;7.30;81.60;;;;;;5040540;28;20038;-58
2022/12/30 05:03:02;;;;;;;8.30;1.40;;;7.30;81.50;;;;;;5034341;28;20051;-59
2022/12/30 05:05:28;;;;;;;5.35;1.67;;;7.30;81.60;;;;;;5045885;28;20482;-59
2022/12/30 05:07:54;;;;;;;2.65;1.13;;;7.30;81.60;;;;;;5040770;28;20246;-67
2022/12/30 05:10:20;;;;;;;2.38;1.17;;;7.30;81.70;;;;;;5048898;28;20094;-68
2022/12/30 05:12:45;;;;;;;3.47;1.38;;;7.30;81.60;;;;;;5059180;28;20501;-67
2022/12/30 05:15:11;;;;;;;1.48;0.70;;;7.30;81.50;;;;;;5044608;28;20044;-59
2022/12/30 05:17:37;;;;;;;4.70;1.58;;;7.30;81.50;;;;;;5048556;28;20059;-66
2022/12/30 05:20:03;;;;;;;4.60;1.40;;;7.30;81.50;;;;;;5048220;28;20033;-67
2022/12/30 05:22:28;;;;;;;5.00;1.77;;;7.20;81.60;;;;;;5051960;28;20037;-66
2022/12/30 05:27:38;;;;;;;1.90;1.10;;;7.20;81.70;;;;;;5048007;28;20491;-58
2022/12/30 05:30:04;;;;;;;3.85;1.42;;;7.20;81.80;;;;;;5048310;28;20021;-58
2022/12/30 05:32:30;;;;;;;7.45;1.73;;;7.20;81.90;;;;;;5045607;28;20039;-58
2022/12/30 05:34:56;;;;;;;5.85;1.38;;;7.20;82.00;;;;;;5048302;28;20029;-59
2022/12/30 05:37:22;;;;;;;5.90;1.48;;;7.20;82.10;;;;;;5048121;28;20054;-66
2022/12/30 05:39:47;;;;;;;2.50;1.15;;;7.20;82.20;;;;;;5046194;28;20046;-67
2022/12/30 05:42:13;;;;;;;4.30;1.30;;;7.20;82.10;;;;;;5047305;28;20033;-58
2022/12/30 05:44:38;;;;;;;5.45;1.40;;;7.20;82.20;;;;;;5048268;28;20051;-66
2022/12/30 05:47:04;;;;;;;2.15;1.13;;;7.20;82.30;;;;;;5049652;28;20079;-58
2022/12/30 05:49:30;;;;;;;5.93;1.63;;;7.20;82.30;;;;;;5054725;28;20021;-59
2022/12/30 05:51:55;;;;;;;3.10;1.90;;;7.20;82.30;;;;;;5049681;28;20373;-67
2022/12/30 05:54:21;;;;;;;2.28;1.13;;;7.20;82.40;;;;;;5048063;28;20036;-59
2022/12/30 05:56:47;;;;;;;5.22;1.25;;;7.20;82.40;;;;;;5052981;28;20041;-67
2022/12/30 05:59:12;;;;;;;10.32;2.03;;;7.20;82.40;;;;;;5057367;28;20037;-58
2022/12/30 06:01:38;;;;;;;3.03;1.25;;;7.20;83.00;;;;;;5054921;28;20061;-58
2022/12/30 06:04:04;;;;;;;14.07;1.95;;;7.30;82.40;;;;;;5061552;28;20115;-67
2022/12/30 06:06:30;;;;;;;2.85;1.55;;;7.20;82.50;;;;;;5061899;28;20107;-67
2022/12/30 06:08:56;;;;;;;6.60;1.88;;;7.20;82.50;;;;;;5045028;28;20029;-59
2022/12/30 06:11:21;;;;;;;2.47;1.20;;;7.20;82.60;;;;;;5042276;28;20124;-67
2022/12/30 06:13:47;;;;;;;10.82;2.35;;;7.20;82.60;;;;;;5051363;28;20022;-67
2022/12/30 06:16:13;;;;;;;4.45;2.08;;;7.20;82.80;;;;;;5045309;28;20162;-59
2022/12/30 06:18:38;;;;;;;4.05;1.67;;;7.20;82.80;;;;;;5048615;28;20490;-67
2022/12/30 06:21:04;;;;;;;5.70;1.65;;;7.20;82.80;;;;;;5052751;28;20090;-59
2022/12/30 06:23:30;;;;;;;8.70;1.30;;;7.20;82.70;;;;;;5056216;28;20021;-58
2022/12/30 06:25:58;;;;;;;7.32;1.10;;;7.20;82.80;;;;;;5048475;28;20048;-66
2022/12/30 06:28:25;;;;;;;3.45;0.90;;;7.20;82.70;;;;;;5045482;28;20039;-67
2022/12/30 06:30:51;;;;;;;1.52;0.95;;;7.20;82.70;;;;;;5052688;28;20135;-67
2022/12/30 06:33:17;;;;;;;9.63;1.75;;;7.20;82.70;;;;;;5042149;28;20086;-58
2022/12/30 06:35:44;;;;;;;8.25;1.70;;;7.20;82.70;;;;;;5054077;28;20033;-59
2022/12/30 06:38:10;;;;;;;3.38;1.60;;;7.20;82.70;;;;;;5046275;28;20089;-59
2022/12/30 06:40:36;;;;;;;2.90;0.88;;;7.20;82.80;;;;;;5047709;28;20040;-67
2022/12/30 06:43:01;;;;;;;3.15;1.65;;;7.10;82.80;;;;;;5050025;28;20023;-58
2022/12/30 06:45:27;;;;;;;4.80;1.35;;;7.20;82.90;;;;;;5053340;28;20018;-59
2022/12/30 06:47:53;;;;;;;3.58;1.38;;;7.20;82.80;;;;;;5054052;28;20392;-58
2022/12/30 06:50:18;;;;;;;3.65;0.93;;;7.20;82.80;;;;;;5051794;28;20021;-66
2022/12/30 06:52:44;;;;;;;1.88;0.90;;;7.20;82.80;;;;;;5054066;28;20040;-67
2022/12/30 06:55:10;;;;;;;7.03;1.23;;;7.20;82.80;;;;;;5044795;28;20052;-67
2022/12/30 06:57:36;;;;;;;2.30;1.10;;;7.20;83.00;;;;;;5049107;28;20041;-67
2022/12/30 07:00:03;;;;;;;4.18;1.08;;;7.20;83.00;;;;;;5054162;28;20017;-59
2022/12/30 07:02:29;;;;;;;13.38;1.67;;;7.20;83.00;;;;;;5043280;28;20041;-67
2022/12/30 07:04:55;;;;;;;1.30;0.85;;;7.10;83.00;;;;;;5047827;28;20436;-69
2022/12/30 07:07:21;;;;;;;2.72;1.77;;;7.10;83.20;;;;;;5040237;28;20466;-67
2022/12/30 07:09:46;;;;;;;4.75;1.67;;;7.10;83.20;;;;;;5047590;28;20204;-66
2022/12/30 07:12:13;;;;;;;3.10;1.80;;;7.10;83.20;;;;;;5045487;28;20045;-59
2022/12/30 07:14:38;;;;;;;4.75;1.50;;;7.10;83.30;;;;;;5037004;28;20041;-66
2022/12/30 07:17:04;;;;;;;2.35;1.40;;;7.10;83.20;;;;;;5047339;28;20025;-60
2022/12/30 07:19:30;;;;;;;2.13;1.42;;;7.10;83.20;;;;;;5052178;28;20036;-59
2022/12/30 07:21:56;;;;;;;2.90;0.98;;;7.10;83.30;;;;;;5044615;28;20029;-67
2022/12/30 07:24:22;;;;;;;5.57;1.05;;;7.10;83.30;;;;;;5046030;28;20043;-59
2022/12/30 07:26:47;;;;;;;3.78;1.15;;;7.10;83.30;;;;;;5048363;28;20025;-61
2022/12/30 07:29:13;;;;;;;2.92;1.30;;;7.10;83.30;;;;;;5047447;28;20028;-68
2022/12/30 07:31:40;;;;;;;0.70;0.63;;;7.10;83.30;;;;;;5048017;28;20087;-61
2022/12/30 07:34:06;;;;;;;1.17;0.70;;;7.10;83.40;;;;;;5049322;28;20044;-67
2022/12/30 07:36:31;;;;;;;6.95;1.48;;;7.10;83.40;;;;;;5048681;28;20476;-61
2022/12/30 07:38:58;;;;;;;4.45;1.13;;;7.10;83.30;;;;;;5043615;28;20037;-69
2022/12/30 07:41:24;;;;;;;7.65;1.85;;;7.20;83.40;;;;;;5041303;28;20052;-68
2022/12/30 07:43:50;;;;;;;2.00;1.38;;;7.20;83.50;;;;;;5050019;28;20024;-67
2022/12/30 07:46:16;;;;;;;1.38;0.98;;;7.20;83.60;;;;;;5047951;28;20445;-60
2022/12/30 07:48:45;;;;;;;4.93;1.30;;;7.20;83.60;;;;;;5046326;28;20091;-61
2022/12/30 07:51:15;;;;;;;3.20;1.35;;;7.20;83.70;;;;;;5047806;28;20537;-60
2022/12/30 07:53:42;;;;;;;4.80;0.70;;;7.30;83.70;;;;;;5047516;28;20163;-59
2022/12/30 07:56:10;;;;;;;2.70;1.50;;;7.30;83.70;;;;;;5045241;28;20112;-60
2022/12/30 07:58:36;;;;;;;1.88;1.20;;;7.30;83.80;;;;;;5048177;28;20040;-60
2022/12/30 08:01:06;;;;;;;4.95;1.83;;;7.30;83.80;;;;;;5047661;28;20024;-70
2022/12/30 08:03:32;;;;;;;6.93;2.00;;;7.30;83.80;;;;;;5045671;28;20033;-60
2022/12/30 08:06:10;;;;;;;2.05;1.00;;;7.30;83.90;;;;;;5035821;28;20395;-61
2022/12/30 08:08:36;;;;;;;4.82;1.50;;;7.30;83.80;;;;;;5052582;28;20051;-61
2022/12/30 08:11:03;;;;;;;7.13;1.58;;;7.40;83.90;;;;;;5050437;28;20026;-62
2022/12/30 08:13:34;;;;;;;3.65;1.08;;;7.40;83.70;;;;;;5050732;28;20033;-68
2022/12/30 08:16:08;;;;;;;3.25;1.55;;;7.50;83.80;;;;;;5052052;28;20410;-62
2022/12/30 08:18:34;;;;;;;1.60;1.00;;;7.50;83.80;;;;;;5039419;28;20072;-67
2022/12/30 08:21:05;;;;;;;5.50;1.45;;;7.40;83.90;;;;;;5050932;28;20122;-67
2022/12/30 08:23:32;;;;;;;2.25;1.42;;;7.50;84.00;;;;;;5046330;28;20021;-62
2022/12/30 08:26:06;;;;;;;2.70;1.35;;;7.50;83.90;;;;;;5056071;28;20096;-62
2022/12/30 08:28:33;;;;;;;3.20;1.40;;;7.50;83.90;;;;;;5036744;28;20028;-62
2022/12/30 08:30:59;;;;;;;8.63;1.20;;;7.60;83.80;;;;;;5029332;28;20033;-62
2022/12/30 08:33:25;;;;;;;0.60;0.52;;;7.60;83.80;;;;;;5048013;28;20025;-61
2022/12/30 08:35:51;;;;;;;1.73;1.17;;;7.60;83.70;;;;;;5052513;28;20502;-61
2022/12/30 08:38:16;;;;;;;5.32;1.25;;;7.60;83.60;;;;;;5044456;28;20037;-67
2022/12/30 08:40:42;;;;;;;2.55;1.23;;;7.60;83.60;;;;;;5058167;28;20040;-62
2022/12/30 08:43:07;;;;;;;1.02;0.82;;;7.60;83.60;;;;;;5036166;28;20389;-66
2022/12/30 08:45:33;;;;;;;3.00;1.20;;;7.70;83.60;;;;;;5047111;28;20021;-66
2022/12/30 08:47:59;;;;;;;4.90;1.77;;;7.70;83.50;;;;;;5046352;28;20020;-67
2022/12/30 08:50:28;;;;;;;4.40;1.80;;;7.70;83.40;;;;;;5041910;28;20029;-69
2022/12/30 08:52:54;;;;;;;1.20;0.57;;;7.80;83.40;;;;;;5046616;28;20032;-67
2022/12/30 08:55:19;;;;;;;5.30;1.88;;;7.80;83.40;;;;;;5049665;28;20040;-60
2022/12/30 08:57:45;;;;;;;7.32;1.88;;;7.80;83.50;;;;;;5038714;28;20140;-60
2022/12/30 09:00:11;;;;;;;4.53;0.98;;;7.80;83.40;;;;;;5046852;28;20434;-67
2022/12/30 09:02:37;;;;;;;4.72;1.42;;;7.80;83.40;;;;;;5051311;28;20033;-67
2022/12/30 09:05:03;;;;;;;3.53;1.17;;;7.80;83.40;;;;;;5048020;28;20083;-67
2022/12/30 09:07:28;;;;;;;4.15;1.25;;;7.80;83.40;;;;;;5051737;28;20037;-67
2022/12/30 09:09:54;;;;;;;4.15;0.80;;;7.90;83.50;;;;;;5039783;28;20025;-67
2022/12/30 09:12:20;;;;;;;6.38;1.23;;;7.90;83.50;;;;;;5059106;28;20078;-60
2022/12/30 09:14:45;;;;;;;4.22;1.33;;;7.90;83.50;;;;;;5047221;28;20041;-60
2022/12/30 09:17:11;;;;;;;3.05;1.00;;;8.00;83.60;;;;;;5047587;28;20033;-67
2022/12/30 09:19:37;;;;;;;2.67;0.63;;;8.00;83.40;;;;;;5051249;28;20028;-61
2022/12/30 09:22:02;;;;;;;2.95;1.13;;;8.00;83.30;;;;;;5050514;28;20381;-67
2022/12/30 09:24:28;;;;;;;1.33;0.90;;;8.10;83.20;;;;;;5045467;28;20032;-60
2022/12/30 09:26:54;;;;;;;1.95;1.08;;;8.10;83.10;;;;;;5056093;28;20100;-67
2022/12/30 09:29:19;;;;;;;1.58;0.93;;;8.20;83.00;;;;;;5054568;28;20025;-60
2022/12/30 09:31:45;;;;;;;3.08;0.77;;;8.20;82.80;;;;;;5054271;28;20033;-60
2022/12/30 09:34:12;;;;;;;3.08;0.75;;;8.20;82.80;;;;;;5052508;28;20037;-67
2022/12/30 09:36:37;;;;;;;1.17;1.00;;;8.20;82.90;;;;;;5057953;28;20085;-67
2022/12/30 09:39:03;;;;;;;1.88;0.75;;;8.20;82.80;;;;;;5043276;28;20116;-59
2022/12/30 09:44:43;;;;;;;1.17;0.88;;;8.30;82.60;;;;;;5048805;28;20067;-67
2022/12/30 09:47:22;;;;;;;3.05;0.80;;;8.40;82.60;;;;;;5053185;28;20031;-60
2022/12/30 09:50:05;;;;;;;0.40;0.40;;;8.40;82.40;;;;;;5045637;28;20425;-67
2022/12/30 09:52:38;;;;;;;1.98;0.63;;;8.40;82.30;;;;;;5046528;28;20029;-60
2022/12/30 09:55:19;;;;;;;1.10;0.68;;;8.50;82.30;;;;;;5049556;28;20026;-67
2022/12/30 09:57:50;;;;;;;2.55;0.85;;;8.50;82.20;;;;;;5049354;28;20021;-67
2022/12/30 10:00:19;;;;;;;1.45;0.85;;;8.50;82.10;;;;;;5049379;28;20044;-66
2022/12/30 10:02:52;;;;;;;4.95;1.48;;;8.60;81.90;;;;;;5044636;28;20025;-67
2022/12/30 10:05:25;;;;;;;;;;;8.60;81.90;;;;;;5047715;28;20055;-66
2022/12/30 10:08:11;;;;;;;6.47;1.15;;;8.60;81.90;;;;;;5048274;28;19920;-67
2022/12/30 10:10:45;;;;;;;2.00;0.63;;;8.60;81.70;;;;;;5045387;28;20032;-67
2022/12/30 10:13:32;;;;;;;1.80;0.80;;;8.60;81.80;;;;;;5038346;28;20037;-60
2022/12/30 10:16:30;;;;;;;2.70;1.00;;;8.60;81.50;;;;;;5046496;28;20066;-60
2022/12/30 10:19:16;;;;;;;3.38;1.60;;;8.60;81.40;;;;;;5038571;28;20068;-67
2022/12/30 10:21:42;;;;;;;2.03;0.95;;;8.70;81.30;;;;;;5038958;28;20052;-67
2022/12/30 10:24:28;;;;;;;2.03;1.02;;;8.70;81.40;;;;;;5056252;28;20020;-67
2022/12/30 10:26:57;;;;;;;0.98;0.70;;;8.80;81.30;;;;;;5042379;28;20189;-67
2022/12/30 10:29:31;;;;;;;2.28;1.02;;;8.80;81.30;;;;;;5052073;28;20032;-67
2022/12/30 10:32:03;;;;;;;0.75;0.60;;;8.80;81.20;;;;;;5052401;28;20031;-60
2022/12/30 10:34:30;;;;;;;0.75;0.73;;;8.90;81.20;;;;;;5047099;28;20033;-60
2022/12/30 10:37:17;;;;;;;3.83;0.95;;;8.90;81.10;;;;;;5041988;28;20496;-60
2022/12/30 10:39:48;;;;;;;1.95;1.45;;;8.90;81.00;;;;;;5050483;28;20495;-60
2022/12/30 10:42:22;;;;;;;2.90;1.50;;;8.90;81.10;;;;;;5042087;28;20112;-60
2022/12/30 10:45:07;;;;;;;1.98;1.13;;;8.90;81.00;;;;;;5054177;28;20179;-67
2022/12/30 10:48:02;;;;;;;2.00;1.08;;;8.90;81.70;;;;;;5044228;28;20022;-60
2022/12/30 10:50:31;;;;;;;6.22;1.15;;;9.00;81.00;;;;;;5046352;28;20029;-60
2022/12/30 10:52:57;;;;;;;1.25;0.93;;;9.00;80.90;;;;;;5045470;28;20032;-60
2022/12/30 10:55:26;;;;;;;2.42;0.70;;;9.00;80.80;;;;;;5055830;28;20021;-60
2022/12/30 10:58:04;;;;;;;1.13;0.60;;;9.10;80.70;;;;;;5053758;28;20027;-60
2022/12/30 11:00:39;;;;;;;1.48;0.70;;;9.10;80.60;;;;;;5039394;28;20104;-60
2022/12/30 11:03:22;;;;;;;4.00;0.93;;;9.10;80.40;;;;;;5037205;28;20034;-65
2022/12/30 11:05:47;;;;;;;;;;;9.20;80.40;;;;;;5043970;28;20426;-60
2022/12/30 11:08:23;;;;;;;4.32;0.93;;;9.20;80.40;;;;;;5047556;28;19917;-60
2022/12/30 11:11:00;;;;;;;3.45;0.90;;;9.20;80.30;;;;;;5037528;28;20365;-60
2022/12/30 11:16:12;;;;;;;1.95;0.82;;;9.20;80.20;;;;;;5037625;28;20193;-60
2022/12/30 11:18:42;;;;;;;0.60;0.50;;;9.20;80.30;;;;;;5042499;28;20530;-60
2022/12/30 11:21:09;;;;;;;1.48;1.05;;;9.20;80.80;;;;;;5046991;28;20534;-60
2022/12/30 11:23:37;;;;;;;1.30;0.90;;;9.20;80.20;;;;;;5054997;28;20033;-60
2022/12/30 11:26:18;;;;;;;1.48;0.68;;;9.30;80.30;;;;;;5040813;28;20052;-60
2022/12/30 11:28:50;;;;;;;1.15;1.00;;;9.30;80.30;;;;;;5047609;28;20060;-60
2022/12/30 11:31:17;;;;;;;2.92;0.65;;;9.30;80.20;;;;;;5050275;28;20025;-67
2022/12/30 11:33:48;;;;;;;0.90;0.77;;;9.30;80.20;;;;;;5046556;28;20052;-67
2022/12/30 11:36:31;;;;;;;8.63;1.15;;;9.40;80.10;;;;;;5041274;28;20657;-60
2022/12/30 11:39:06;;;;;;;1.70;0.70;;;9.40;80.10;;;;;;5044427;28;20028;-60
2022/12/30 11:41:44;;;;;;;4.05;0.70;;;9.40;80.20;;;;;;5046595;28;20066;-67
2022/12/30 11:44:13;;;;;;;1.98;0.70;;;9.30;80.20;;;;;;5054488;28;20424;-60
2022/12/30 11:46:43;;;;;;;0.90;0.35;;;9.30;80.20;;;;;;5048947;28;20039;-60
2022/12/30 11:49:33;;;;;;;1.38;1.00;;;9.30;80.20;;;;;;5050230;28;20024;-67
2022/12/30 11:52:12;;;;;;;0.13;0.13;;;9.40;80.10;;;;;;5047593;28;20035;-67
2022/12/30 11:54:54;;;;;;;1.15;0.80;;;9.40;80.10;;;;;;5038218;28;20408;-65
2022/12/30 11:57:32;;;;;;;1.45;0.63;;;9.40;79.80;;;;;;5045782;28;20058;-65
2022/12/30 12:00:06;;;;;;;1.27;0.40;;;9.40;79.80;;;;;;5070539;28;20171;-65
2022/12/30 12:02:38;;;;;;;0.45;0.43;;;9.40;79.80;;;;;;5044020;28;20110;-67
2022/12/30 12:05:28;;;;;;;1.30;0.55;;;9.50;79.80;;;;;;5048617;28;20013;-58
2022/12/30 12:08:03;;;;;;;1.33;0.50;;;9.50;80.20;;;;;;5055417;28;20075;-66
2022/12/30 12:10:36;;;;;;;3.42;1.13;;;9.50;79.70;;;;;;5037509;28;20036;-66
2022/12/30 12:13:09;;;;;;;2.05;0.90;;;9.50;79.70;;;;;;5043528;28;20029;-66
2022/12/30 12:15:45;;;;;;;2.42;0.77;;;9.50;79.60;;;;;;5047905;28;20024;-66
2022/12/30 12:18:17;;;;;;;2.53;0.40;;;9.50;79.50;;;;;;5046695;28;20033;-58
2022/12/30 12:20:47;;;;;;;1.60;1.00;;;9.60;79.40;;;;;;5045668;28;20021;-66
2022/12/30 12:23:34;;;;;;;1.40;0.60;;;9.60;79.30;;;;;;5037466;28;20749;-66
2022/12/30 12:26:25;;;;;;;0.43;0.43;;;9.60;79.30;;;;;;5049809;28;20034;-66
2022/12/30 12:28:53;;;;;;;1.00;0.70;;;9.60;79.20;;;;;;5046017;28;20114;-59
2022/12/30 12:31:48;;;;;;;2.05;0.88;;;9.60;79.20;;;;;;5055065;28;20547;-59
2022/12/30 12:34:51;;;;;;;0.90;0.50;;;9.70;79.10;;;;;;5043878;28;20055;-66
2022/12/30 12:37:38;;;;;;;2.30;1.08;;;9.70;78.80;;;;;;5043071;28;20124;-66
2022/12/30 12:40:12;;;;;;;0.93;0.65;;;9.70;78.90;;;;;;5043163;28;20029;-66
2022/12/30 12:42:54;;;;;;;0.90;0.45;;;9.80;78.90;;;;;;5049280;28;20400;-66
2022/12/30 12:45:43;;;;;;;1.85;0.88;;;9.80;78.90;;;;;;5039909;28;20029;-67
2022/12/30 12:48:48;;;;;;;1.70;0.80;;;9.80;78.80;;;;;;5032098;28;20460;-66
2022/12/30 12:51:50;;;;;;;1.33;0.80;;;9.90;78.70;;;;;;5040707;28;20033;-66
2022/12/30 12:54:46;;;;;;;0.50;0.43;;;9.90;78.70;;;;;;5044069;28;20048;-66
2022/12/30 12:57:23;;;;;;;3.63;0.60;;;9.90;78.80;;;;;;5049786;28;20045;-66
2022/12/30 13:00:07;;;;;;;2.80;0.60;;;9.90;79.00;;;;;;5043074;28;20442;-66
2022/12/30 13:03:10;;;;;;;2.08;0.65;;;9.90;79.10;;;;;;5049724;28;20031;-66
2022/12/30 13:05:54;;;;;;;0.43;0.40;;;9.90;79.40;;;;;;5046649;28;20045;-66
2022/12/30 13:08:38;;;;;;;1.20;0.40;;;9.90;79.70;;;;;;5040315;28;20059;-66
2022/12/30 13:11:18;;;;;;;3.55;1.10;;;9.90;79.70;;;;;;5044302;28;20371;-59
2022/12/30 13:14:09;;;;;;;6.93;1.13;;;9.90;79.80;;;;;;5047170;28;20527;-66
2022/12/30 13:16:41;;;;;;;3.92;1.02;;;9.90;79.90;;;;;;5046511;28;20079;-59
2022/12/30 13:19:16;;;;;;;1.58;0.50;;;9.90;80.20;;;;;;5043514;28;20037;-66
2022/12/30 13:21:44;;;;;;;0.93;0.85;;;9.90;80.40;;;;;;5034536;28;20047;-66
2022/12/30 13:24:36;;;;;;;3.50;1.23;;;9.80;80.60;;;;;;5044529;28;20640;-66
2022/12/30 13:27:05;;;;;;;2.90;0.60;;;9.80;81.20;;;;;;5035249;28;20504;-66
2022/12/30 13:29:37;;;;;;;3.83;0.70;;;9.80;81.50;;;;;;5042336;28;20028;-66
2022/12/30 13:32:29;;;;;;;2.60;0.80;;;9.80;81.80;;;;;;5046669;28;20503;-66
2022/12/30 13:35:05;;;;;;;1.13;0.45;;;9.80;81.90;;;;;;5042292;28;20678;-66
2022/12/30 13:37:41;;;;;;;1.55;0.70;;;9.80;82.20;;;;;;5048789;28;20029;-66
2022/12/30 13:40:14;;;;;;;1.48;0.95;;;9.80;82.40;;;;;;5032244;28;20035;-66
2022/12/30 13:43:13;;;;;;;1.02;0.60;;;9.80;82.50;;;;;;5039188;28;20175;-59
2022/12/30 13:45:47;;;;;;;0.60;0.43;;;9.80;82.50;;;;;;5054499;28;20036;-66
2022/12/30 13:48:19;;;;;;;1.17;0.50;;;9.70;82.60;;;;;;5051845;28;20391;-66
2022/12/30 13:50:46;;;;;;;3.95;0.93;;;9.70;83.10;;;;;;5039529;28;20060;-66
2022/12/30 13:53:41;;;;;;;0.75;0.40;;;9.70;83.30;;;;;;5051324;28;20082;-59
2022/12/30 13:56:08;;;;;;;0.75;0.40;;;9.70;83.50;;;;;;5029466;28;20037;-59
2022/12/30 13:58:44;;;;;;;0.75;0.65;;;9.60;83.80;;;;;;5046804;28;20025;-66
2022/12/30 14:01:19;;;;;;;1.73;0.60;;;9.60;83.80;;;;;;5044442;28;20036;-59
2022/12/30 14:03:48;;;;;;;0.93;0.68;;;9.70;83.80;;;;;;5044278;28;20037;-66
2022/12/30 14:06:42;;;;;;;1.00;0.85;;;9.70;83.80;;;;;;5046541;28;20136;-59
2022/12/30 14:09:16;;;;;;;2.17;0.80;;;9.70;83.90;;;;;;5052228;28;20067;-67
2022/12/30 14:12:06;;;;;;;0.90;0.57;;;9.60;84.80;;;;;;5051542;28;20033;-59
2022/12/30 14:14:33;;;;;;;0.98;0.70;;;9.60;84.30;;;;;;5051991;28;20068;-59